sensor_id;sensor_type;location;lat;lon;timestamp;temperature;humidity
18932;DHT22;9598;50.954;3.112;2022-08-11T00:05:04;24.20;99.90
18932;DHT22;9598;50.954;3.112;2022-08-11T00:10:11;24.10;99.90
18932;DHT22;9598;50.954;3.112;2022-08-11T00:15:16;24.10;99.90
18932;DHT22;9598;50.954;3.112;2022-08-11T00:20:19;24.10;99.90
18932;DHT22;9598;50.954;3.112;2022-08-11T00:25:23;24.00;99.90
18932;DHT22;9598;50.954;3.112;2022-08-11T00:30:25;23.90;99.90
18932;DHT22;9598;50.954;3.112;2022-08-11T00:35:38;23.90;99.90
18932;DHT22;9598;50.954;3.112;2022-08-11T00:40:45;23.90;99.90
18932;DHT22;9598;50.954;3.112;2022-08-11T00:46:11;23.90;99.90
18932;DHT22;9598;50.954;3.112;2022-08-11T00:51:22;23.80;99.90
18932;DHT22;9598;50.954;3.112;2022-08-11T00:56:58;23.80;99.90
18932;DHT22;9598;50.954;3.112;2022-08-11T01:02:13;23.70;99.90
18932;DHT22;9598;50.954;3.112;2022-08-11T01:07:40;23.70;99.90
18932;DHT22;9598;50.954;3.112;2022-08-11T01:13:03;23.60;99.90
18932;DHT22;9598;50.954;3.112;2022-08-11T01:30:17;23.40;99.90
18932;DHT22;9598;50.954;3.112;2022-08-11T01:35:39;23.40;99.90
18932;DHT22;9598;50.954;3.112;2022-08-11T01:41:04;23.30;99.90
18932;DHT22;9598;50.954;3.112;2022-08-11T01:46:21;23.20;99.90
18932;DHT22;9598;50.954;3.112;2022-08-11T01:51:36;23.20;99.90
18932;DHT22;9598;50.954;3.112;2022-08-11T01:57:06;23.10;99.90
18932;DHT22;9598;50.954;3.112;2022-08-11T02:02:29;23.00;99.90
18932;DHT22;9598;50.954;3.112;2022-08-11T02:07:57;22.90;99.90
18932;DHT22;9598;50.954;3.112;2022-08-11T02:13:11;22.90;99.90
18932;DHT22;9598;50.954;3.112;2022-08-11T02:18:19;22.80;99.90
18932;DHT22;9598;50.954;3.112;2022-08-11T02:23:31;22.80;99.90
18932;DHT22;9598;50.954;3.112;2022-08-11T02:28:54;22.80;99.90
18932;DHT22;9598;50.954;3.112;2022-08-11T02:34:07;22.70;99.90
18932;DHT22;9598;50.954;3.112;2022-08-11T02:39:14;22.70;99.90
18932;DHT22;9598;50.954;3.112;2022-08-11T02:44:26;22.50;99.90
18932;DHT22;9598;50.954;3.112;2022-08-11T02:49:39;22.50;99.90
18932;DHT22;9598;50.954;3.112;2022-08-11T03:00:25;22.40;99.90
18932;DHT22;9598;50.954;3.112;2022-08-11T03:05:41;22.40;99.90
18932;DHT22;9598;50.954;3.112;2022-08-11T03:10:55;22.30;99.90
18932;DHT22;9598;50.954;3.112;2022-08-11T03:16:24;22.30;99.90
18932;DHT22;9598;50.954;3.112;2022-08-11T03:21:54;22.30;99.90
18932;DHT22;9598;50.954;3.112;2022-08-11T03:27:04;22.30;99.90
18932;DHT22;9598;50.954;3.112;2022-08-11T03:32:25;22.20;99.90
18932;DHT22;9598;50.954;3.112;2022-08-11T03:37:40;22.20;99.90
18932;DHT22;9598;50.954;3.112;2022-08-11T03:42:56;22.20;99.90
18932;DHT22;9598;50.954;3.112;2022-08-11T03:48:15;22.20;99.90
18932;DHT22;9598;50.954;3.112;2022-08-11T03:59:04;22.00;99.90
18932;DHT22;9598;50.954;3.112;2022-08-11T04:10:40;21.90;99.90
18932;DHT22;9598;50.954;3.112;2022-08-11T04:16:00;21.90;99.90
18932;DHT22;9598;50.954;3.112;2022-08-11T04:33:09;21.80;99.90
18932;DHT22;9598;50.954;3.112;2022-08-11T04:38:46;21.70;99.90
18932;DHT22;9598;50.954;3.112;2022-08-11T04:44:23;21.70;99.90
18932;DHT22;9598;50.954;3.112;2022-08-11T04:49:48;21.70;99.90
18932;DHT22;9598;50.954;3.112;2022-08-11T04:55:25;21.60;99.90
18932;DHT22;9598;50.954;3.112;2022-08-11T05:00:52;21.50;99.90
18932;DHT22;9598;50.954;3.112;2022-08-11T05:07:06;21.50;99.90
18932;DHT22;9598;50.954;3.112;2022-08-11T05:12:25;21.50;99.90
18932;DHT22;9598;50.954;3.112;2022-08-11T05:17:41;21.50;99.90
18932;DHT22;9598;50.954;3.112;2022-08-11T05:23:06;21.50;99.90
18932;DHT22;9598;50.954;3.112;2022-08-11T05:28:32;21.50;99.90
18932;DHT22;9598;50.954;3.112;2022-08-11T05:33:57;21.50;99.90
18932;DHT22;9598;50.954;3.112;2022-08-11T05:39:21;21.50;99.90
18932;DHT22;9598;50.954;3.112;2022-08-11T05:44:44;21.50;99.90
18932;DHT22;9598;50.954;3.112;2022-08-11T05:50:08;21.50;99.90
18932;DHT22;9598;50.954;3.112;2022-08-11T05:55:29;21.50;99.90
18932;DHT22;9598;50.954;3.112;2022-08-11T06:00:51;21.60;99.90
18932;DHT22;9598;50.954;3.112;2022-08-11T06:05:55;21.60;99.90
18932;DHT22;9598;50.954;3.112;2022-08-11T06:11:04;21.60;99.90
18932;DHT22;9598;50.954;3.112;2022-08-11T06:16:07;21.70;99.90
18932;DHT22;9598;50.954;3.112;2022-08-11T06:21:10;21.80;99.90
18932;DHT22;9598;50.954;3.112;2022-08-11T06:26:14;21.80;99.90
18932;DHT22;9598;50.954;3.112;2022-08-11T06:31:19;21.90;99.90
18932;DHT22;9598;50.954;3.112;2022-08-11T06:36:30;22.00;99.90
18932;DHT22;9598;50.954;3.112;2022-08-11T06:41:39;22.20;99.90
18932;DHT22;9598;50.954;3.112;2022-08-11T06:46:47;22.40;99.90
18932;DHT22;9598;50.954;3.112;2022-08-11T06:51:50;22.60;99.90
18932;DHT22;9598;50.954;3.112;2022-08-11T06:56:54;22.80;99.90
18932;DHT22;9598;50.954;3.112;2022-08-11T07:02:21;22.90;99.90
18932;DHT22;9598;50.954;3.112;2022-08-11T07:13:13;23.50;99.90
18932;DHT22;9598;50.954;3.112;2022-08-11T07:18:35;23.70;99.90
18932;DHT22;9598;50.954;3.112;2022-08-11T07:23:55;24.00;99.90
18932;DHT22;9598;50.954;3.112;2022-08-11T07:29:18;24.30;99.90
18932;DHT22;9598;50.954;3.112;2022-08-11T07:34:23;24.40;99.90
18932;DHT22;9598;50.954;3.112;2022-08-11T07:39:31;24.60;99.90
18932;DHT22;9598;50.954;3.112;2022-08-11T07:44:35;24.80;99.90
18932;DHT22;9598;50.954;3.112;2022-08-11T07:49:59;25.00;99.90
18932;DHT22;9598;50.954;3.112;2022-08-11T07:55:19;25.30;99.90
18932;DHT22;9598;50.954;3.112;2022-08-11T08:00:23;25.60;99.90
18932;DHT22;9598;50.954;3.112;2022-08-11T08:05:44;25.70;99.90
18932;DHT22;9598;50.954;3.112;2022-08-11T08:11:04;25.90;99.90
18932;DHT22;9598;50.954;3.112;2022-08-11T08:16:25;26.00;99.90
18932;DHT22;9598;50.954;3.112;2022-08-11T08:21:44;26.30;99.90
18932;DHT22;9598;50.954;3.112;2022-08-11T08:26:48;26.50;99.90
18932;DHT22;9598;50.954;3.112;2022-08-11T08:32:01;26.80;99.90
18932;DHT22;9598;50.954;3.112;2022-08-11T08:37:04;27.00;99.90
18932;DHT22;9598;50.954;3.112;2022-08-11T08:42:09;27.20;99.90
18932;DHT22;9598;50.954;3.112;2022-08-11T08:47:15;27.40;99.90
18932;DHT22;9598;50.954;3.112;2022-08-11T08:52:20;27.60;99.90
18932;DHT22;9598;50.954;3.112;2022-08-11T08:57:27;27.80;99.90
18932;DHT22;9598;50.954;3.112;2022-08-11T09:02:31;27.80;99.90
18932;DHT22;9598;50.954;3.112;2022-08-11T09:07:34;27.90;99.90
18932;DHT22;9598;50.954;3.112;2022-08-11T09:12:39;28.00;99.30
18932;DHT22;9598;50.954;3.112;2022-08-11T09:17:45;28.30;98.80
18932;DHT22;9598;50.954;3.112;2022-08-11T09:22:48;28.70;97.10
18932;DHT22;9598;50.954;3.112;2022-08-11T09:28:10;29.00;95.90
18932;DHT22;9598;50.954;3.112;2022-08-11T09:33:15;29.20;95.30
18932;DHT22;9598;50.954;3.112;2022-08-11T09:38:19;29.30;95.50
18932;DHT22;9598;50.954;3.112;2022-08-11T09:43:43;29.60;94.10
18932;DHT22;9598;50.954;3.112;2022-08-11T09:49:04;29.80;92.60
18932;DHT22;9598;50.954;3.112;2022-08-11T09:54:07;30.00;92.50
18932;DHT22;9598;50.954;3.112;2022-08-11T09:59:09;30.30;92.50
18932;DHT22;9598;50.954;3.112;2022-08-11T10:04:15;30.60;90.80
18932;DHT22;9598;50.954;3.112;2022-08-11T10:09:20;30.80;90.80
18932;DHT22;9598;50.954;3.112;2022-08-11T10:14:22;31.00;90.60
18932;DHT22;9598;50.954;3.112;2022-08-11T10:19:46;31.20;88.00
18932;DHT22;9598;50.954;3.112;2022-08-11T10:24:49;31.30;87.80
18932;DHT22;9598;50.954;3.112;2022-08-11T10:30:10;31.50;88.60
18932;DHT22;9598;50.954;3.112;2022-08-11T10:35:31;31.60;85.80
18932;DHT22;9598;50.954;3.112;2022-08-11T10:40:34;31.70;83.40
18932;DHT22;9598;50.954;3.112;2022-08-11T10:45:37;31.90;82.70
18932;DHT22;9598;50.954;3.112;2022-08-11T10:50:59;32.00;79.50
18932;DHT22;9598;50.954;3.112;2022-08-11T10:56:18;32.00;77.90
18932;DHT22;9598;50.954;3.112;2022-08-11T11:01:40;32.10;76.50
18932;DHT22;9598;50.954;3.112;2022-08-11T11:06:51;32.40;75.50
18932;DHT22;9598;50.954;3.112;2022-08-11T11:11:59;32.60;73.30
18932;DHT22;9598;50.954;3.112;2022-08-11T11:17:26;32.80;71.30
18932;DHT22;9598;50.954;3.112;2022-08-11T11:22:52;32.90;71.00
18932;DHT22;9598;50.954;3.112;2022-08-11T11:28:12;32.90;71.10
18932;DHT22;9598;50.954;3.112;2022-08-11T11:33:22;32.90;71.00
18932;DHT22;9598;50.954;3.112;2022-08-11T11:38:32;33.00;69.90
18932;DHT22;9598;50.954;3.112;2022-08-11T11:43:35;33.10;69.70
18932;DHT22;9598;50.954;3.112;2022-08-11T11:48:38;33.20;69.00
18932;DHT22;9598;50.954;3.112;2022-08-11T11:53:46;33.20;68.50
18932;DHT22;9598;50.954;3.112;2022-08-11T11:58:49;33.30;67.00
18932;DHT22;9598;50.954;3.112;2022-08-11T12:04:10;33.50;66.80
18932;DHT22;9598;50.954;3.112;2022-08-11T12:09:14;33.60;65.30
18932;DHT22;9598;50.954;3.112;2022-08-11T12:14:23;33.70;65.40
18932;DHT22;9598;50.954;3.112;2022-08-11T12:19:28;33.70;63.70
18932;DHT22;9598;50.954;3.112;2022-08-11T12:24:33;33.70;63.10
18932;DHT22;9598;50.954;3.112;2022-08-11T12:29:55;33.80;62.80
18932;DHT22;9598;50.954;3.112;2022-08-11T12:34:58;33.80;61.40
18932;DHT22;9598;50.954;3.112;2022-08-11T12:40:06;33.80;60.90
18932;DHT22;9598;50.954;3.112;2022-08-11T12:45:27;33.90;61.60
18932;DHT22;9598;50.954;3.112;2022-08-11T12:50:29;33.90;60.70
18932;DHT22;9598;50.954;3.112;2022-08-11T12:55:50;33.90;60.30
18932;DHT22;9598;50.954;3.112;2022-08-11T13:01:11;34.00;59.30
18932;DHT22;9598;50.954;3.112;2022-08-11T13:06:31;34.00;60.90
18932;DHT22;9598;50.954;3.112;2022-08-11T13:11:35;34.10;60.50
18932;DHT22;9598;50.954;3.112;2022-08-11T13:16:56;34.10;59.40
18932;DHT22;9598;50.954;3.112;2022-08-11T13:22:17;34.20;58.30
18932;DHT22;9598;50.954;3.112;2022-08-11T13:27:22;34.40;56.90
18932;DHT22;9598;50.954;3.112;2022-08-11T13:32:26;34.30;57.20
18932;DHT22;9598;50.954;3.112;2022-08-11T13:37:29;34.20;56.30
18932;DHT22;9598;50.954;3.112;2022-08-11T13:42:33;34.10;55.80
18932;DHT22;9598;50.954;3.112;2022-08-11T13:47:36;34.10;56.70
18932;DHT22;9598;50.954;3.112;2022-08-11T13:52:40;34.00;56.60
18932;DHT22;9598;50.954;3.112;2022-08-11T13:57:44;34.00;54.80
18932;DHT22;9598;50.954;3.112;2022-08-11T14:02:48;34.00;56.00
18932;DHT22;9598;50.954;3.112;2022-08-11T14:07:52;33.90;54.40
18932;DHT22;9598;50.954;3.112;2022-08-11T14:12:59;33.80;54.20
18932;DHT22;9598;50.954;3.112;2022-08-11T14:18:21;33.80;55.20
18932;DHT22;9598;50.954;3.112;2022-08-11T14:23:27;33.80;55.40
18932;DHT22;9598;50.954;3.112;2022-08-11T14:28:33;33.90;54.80
18932;DHT22;9598;50.954;3.112;2022-08-11T14:33:35;33.90;54.30
18932;DHT22;9598;50.954;3.112;2022-08-11T14:38:39;33.90;53.80
18932;DHT22;9598;50.954;3.112;2022-08-11T14:43:44;33.90;53.60
18932;DHT22;9598;50.954;3.112;2022-08-11T14:49:04;33.90;52.80
18932;DHT22;9598;50.954;3.112;2022-08-11T14:54:07;33.90;53.40
18932;DHT22;9598;50.954;3.112;2022-08-11T14:59:28;33.90;53.30
18932;DHT22;9598;50.954;3.112;2022-08-11T15:04:31;33.80;53.70
18932;DHT22;9598;50.954;3.112;2022-08-11T15:09:33;33.90;54.10
18932;DHT22;9598;50.954;3.112;2022-08-11T15:14:38;33.80;54.30
18932;DHT22;9598;50.954;3.112;2022-08-11T15:19:58;33.70;53.50
18932;DHT22;9598;50.954;3.112;2022-08-11T15:25:19;33.70;53.40
18932;DHT22;9598;50.954;3.112;2022-08-11T15:30:23;33.70;52.90
18932;DHT22;9598;50.954;3.112;2022-08-11T15:35:44;33.70;53.30
18932;DHT22;9598;50.954;3.112;2022-08-11T15:41:05;33.60;53.50
18932;DHT22;9598;50.954;3.112;2022-08-11T15:46:30;33.50;53.60
18932;DHT22;9598;50.954;3.112;2022-08-11T15:51:35;33.50;53.80
18932;DHT22;9598;50.954;3.112;2022-08-11T15:56:40;33.40;53.60
18932;DHT22;9598;50.954;3.112;2022-08-11T16:01:46;33.40;53.70
18932;DHT22;9598;50.954;3.112;2022-08-11T16:07:08;33.30;53.90
18932;DHT22;9598;50.954;3.112;2022-08-11T16:12:13;33.30;53.50
18932;DHT22;9598;50.954;3.112;2022-08-11T16:17:18;33.30;54.20
18932;DHT22;9598;50.954;3.112;2022-08-11T16:22:23;33.20;53.50
18932;DHT22;9598;50.954;3.112;2022-08-11T16:27:37;33.10;54.20
18932;DHT22;9598;50.954;3.112;2022-08-11T16:32:44;33.20;54.20
18932;DHT22;9598;50.954;3.112;2022-08-11T16:37:48;33.10;53.50
18932;DHT22;9598;50.954;3.112;2022-08-11T16:43:14;33.00;53.70
18932;DHT22;9598;50.954;3.112;2022-08-11T16:48:37;33.00;53.40
18932;DHT22;9598;50.954;3.112;2022-08-11T16:53:42;32.90;53.40
18932;DHT22;9598;50.954;3.112;2022-08-11T16:58:49;32.90;53.40
18932;DHT22;9598;50.954;3.112;2022-08-11T17:04:22;32.90;53.50
18932;DHT22;9598;50.954;3.112;2022-08-11T17:09:46;32.80;53.10
18932;DHT22;9598;50.954;3.112;2022-08-11T17:15:11;32.80;53.70
18932;DHT22;9598;50.954;3.112;2022-08-11T17:20:29;32.80;53.40
18932;DHT22;9598;50.954;3.112;2022-08-11T17:25:32;32.70;53.90
18932;DHT22;9598;50.954;3.112;2022-08-11T17:30:34;32.60;54.90
18932;DHT22;9598;50.954;3.112;2022-08-11T17:35:56;32.60;55.30
18932;DHT22;9598;50.954;3.112;2022-08-11T17:41:01;32.50;56.00
18932;DHT22;9598;50.954;3.112;2022-08-11T17:46:21;32.50;59.80
18932;DHT22;9598;50.954;3.112;2022-08-11T17:51:44;32.20;64.20
18932;DHT22;9598;50.954;3.112;2022-08-11T17:57:04;32.00;65.20
18932;DHT22;9598;50.954;3.112;2022-08-11T18:02:27;31.80;65.80
18932;DHT22;9598;50.954;3.112;2022-08-11T18:07:51;31.70;66.70
18932;DHT22;9598;50.954;3.112;2022-08-11T18:13:11;31.50;67.20
18932;DHT22;9598;50.954;3.112;2022-08-11T18:18:31;31.40;67.90
18932;DHT22;9598;50.954;3.112;2022-08-11T18:23:52;31.20;69.10
18932;DHT22;9598;50.954;3.112;2022-08-11T18:29:15;31.20;69.70
18932;DHT22;9598;50.954;3.112;2022-08-11T18:34:40;31.00;70.10
18932;DHT22;9598;50.954;3.112;2022-08-11T18:40:04;30.90;70.80
18932;DHT22;9598;50.954;3.112;2022-08-11T18:45:25;30.70;71.90
18932;DHT22;9598;50.954;3.112;2022-08-11T18:50:46;30.60;72.40
18932;DHT22;9598;50.954;3.112;2022-08-11T18:56:08;30.50;73.70
18932;DHT22;9598;50.954;3.112;2022-08-11T19:01:28;30.30;74.10
18932;DHT22;9598;50.954;3.112;2022-08-11T19:06:53;30.30;74.70
18932;DHT22;9598;50.954;3.112;2022-08-11T19:12:16;30.10;75.30
18932;DHT22;9598;50.954;3.112;2022-08-11T19:17:39;30.00;76.20
18932;DHT22;9598;50.954;3.112;2022-08-11T19:23:01;29.90;77.20
18932;DHT22;9598;50.954;3.112;2022-08-11T19:28:23;29.70;77.20
18932;DHT22;9598;50.954;3.112;2022-08-11T19:33:44;29.60;78.20
18932;DHT22;9598;50.954;3.112;2022-08-11T19:39:05;29.40;79.50
18932;DHT22;9598;50.954;3.112;2022-08-11T19:44:27;29.30;80.40
18932;DHT22;9598;50.954;3.112;2022-08-11T19:49:48;29.10;81.00
18932;DHT22;9598;50.954;3.112;2022-08-11T19:55:09;29.10;81.50
18932;DHT22;9598;50.954;3.112;2022-08-11T20:00:31;28.90;82.50
18932;DHT22;9598;50.954;3.112;2022-08-11T20:05:51;28.90;83.10
18932;DHT22;9598;50.954;3.112;2022-08-11T20:11:12;28.80;83.40
18932;DHT22;9598;50.954;3.112;2022-08-11T20:16:35;28.70;83.70
18932;DHT22;9598;50.954;3.112;2022-08-11T20:21:55;28.60;84.10
18932;DHT22;9598;50.954;3.112;2022-08-11T20:27:16;28.50;84.70
18932;DHT22;9598;50.954;3.112;2022-08-11T20:32:37;28.40;85.90
18932;DHT22;9598;50.954;3.112;2022-08-11T20:37:58;28.30;85.20
18932;DHT22;9598;50.954;3.112;2022-08-11T20:43:19;28.20;84.80
18932;DHT22;9598;50.954;3.112;2022-08-11T20:48:41;28.10;85.30
18932;DHT22;9598;50.954;3.112;2022-08-11T20:54:01;28.10;85.60
18932;DHT22;9598;50.954;3.112;2022-08-11T20:59:22;28.10;85.00
18932;DHT22;9598;50.954;3.112;2022-08-11T21:04:44;28.00;85.70
18932;DHT22;9598;50.954;3.112;2022-08-11T21:10:04;27.90;85.30
18932;DHT22;9598;50.954;3.112;2022-08-11T21:15:29;27.80;86.40
18932;DHT22;9598;50.954;3.112;2022-08-11T21:20:51;27.80;86.20
18932;DHT22;9598;50.954;3.112;2022-08-11T21:26:13;27.70;85.90
18932;DHT22;9598;50.954;3.112;2022-08-11T21:31:35;27.60;86.40
18932;DHT22;9598;50.954;3.112;2022-08-11T21:36:57;27.50;86.50
18932;DHT22;9598;50.954;3.112;2022-08-11T21:42:18;27.40;87.00
18932;DHT22;9598;50.954;3.112;2022-08-11T21:47:39;27.20;87.20
18932;DHT22;9598;50.954;3.112;2022-08-11T21:53:01;27.20;87.70
18932;DHT22;9598;50.954;3.112;2022-08-11T21:58:21;27.10;86.90
18932;DHT22;9598;50.954;3.112;2022-08-11T22:03:43;27.00;86.50
18932;DHT22;9598;50.954;3.112;2022-08-11T22:09:04;26.90;86.30
18932;DHT22;9598;50.954;3.112;2022-08-11T22:14:23;26.80;87.00
18932;DHT22;9598;50.954;3.112;2022-08-11T22:19:43;26.80;87.30
18932;DHT22;9598;50.954;3.112;2022-08-11T22:25:04;26.70;87.80
18932;DHT22;9598;50.954;3.112;2022-08-11T22:30:25;26.70;88.80
18932;DHT22;9598;50.954;3.112;2022-08-11T22:35:46;26.80;89.50
18932;DHT22;9598;50.954;3.112;2022-08-11T22:41:08;26.70;90.00
18932;DHT22;9598;50.954;3.112;2022-08-11T22:46:28;26.70;90.00
18932;DHT22;9598;50.954;3.112;2022-08-11T22:51:49;26.60;90.50
18932;DHT22;9598;50.954;3.112;2022-08-11T22:57:10;26.50;90.70
18932;DHT22;9598;50.954;3.112;2022-08-11T23:02:31;26.50;90.80
18932;DHT22;9598;50.954;3.112;2022-08-11T23:07:52;26.50;91.20
18932;DHT22;9598;50.954;3.112;2022-08-11T23:13:14;26.40;91.40
18932;DHT22;9598;50.954;3.112;2022-08-11T23:18:36;26.30;92.00
18932;DHT22;9598;50.954;3.112;2022-08-11T23:23:56;26.20;92.30
18932;DHT22;9598;50.954;3.112;2022-08-11T23:29:18;26.10;92.60
18932;DHT22;9598;50.954;3.112;2022-08-11T23:34:40;26.00;92.90
18932;DHT22;9598;50.954;3.112;2022-08-11T23:40:01;26.00;93.30
18932;DHT22;9598;50.954;3.112;2022-08-11T23:45:22;25.90;93.80
18932;DHT22;9598;50.954;3.112;2022-08-11T23:50:43;25.80;94.10
18932;DHT22;9598;50.954;3.112;2022-08-11T23:56:06;25.80;94.70
